createdAt,value
2023-04-27T00:00:16.724Z,21.6
2023-04-27T00:06:11.258Z,21.6
2023-04-27T00:12:02.874Z,21.6
2023-04-27T00:17:54.154Z,21.6
2023-04-27T00:23:45.925Z,21.6
2023-04-27T00:29:22.257Z,21.5
2023-04-27T00:35:13.181Z,21.5
2023-04-27T00:41:04.215Z,21.5
2023-04-27T00:46:57.472Z,21.5
2023-04-27T00:52:48.852Z,21.5
2023-04-27T00:58:39.930Z,21.5
2023-04-27T01:04:17.946Z,21.4
2023-04-27T01:10:09.598Z,21.4
2023-04-27T01:16:01.528Z,21.4
2023-04-27T01:21:53.571Z,21.4
2023-04-27T01:27:47.142Z,21.4
2023-04-27T01:33:39.140Z,21.4
2023-04-27T01:39:30.984Z,21.4
2023-04-27T01:45:22.691Z,21.4
2023-04-27T01:51:14.345Z,21.4
2023-04-27T01:57:05.651Z,21.4
2023-04-27T02:02:56.581Z,21.4
2023-04-27T02:08:34.217Z,21.4
2023-04-27T02:14:10.905Z,21.4
2023-04-27T02:20:02.852Z,21.3
2023-04-27T02:25:54.143Z,21.3
2023-04-27T02:31:51.288Z,21.3
2023-04-27T02:37:43.416Z,21.3
2023-04-27T02:43:34.185Z,21.3
2023-04-27T02:49:10.645Z,21.3
2023-04-27T02:55:01.922Z,21.3
2023-04-27T03:00:54.171Z,21.3
2023-04-27T03:06:48.065Z,21.3
2023-04-27T03:12:42.294Z,21.3
2023-04-27T03:18:33.935Z,21.3
2023-04-27T03:24:25.315Z,21.3
2023-04-27T03:30:01.465Z,21.3
2023-04-27T03:35:37.757Z,21.3
2023-04-27T03:41:14.028Z,21.3
2023-04-27T03:47:06.018Z,21.3
2023-04-27T03:52:56.576Z,21.3
2023-04-27T03:58:48.528Z,21.3
2023-04-27T04:04:42.123Z,21.3
2023-04-27T04:10:33.389Z,21.3
2023-04-27T04:16:24.949Z,21.3
2023-04-27T04:22:16.011Z,21.3
2023-04-27T04:28:08.142Z,21.2
2023-04-27T04:33:44.888Z,21.2
2023-04-27T04:39:21.032Z,21.2
2023-04-27T04:45:00.168Z,21.2
2023-04-27T04:50:54.643Z,21.2
2023-04-27T04:56:45.929Z,21.2
2023-04-27T05:02:39.991Z,21.2
2023-04-27T05:08:36.831Z,21.2
2023-04-27T05:14:29.958Z,21.2
2023-04-27T05:20:22.471Z,21.2
2023-04-27T05:25:58.984Z,21.2
2023-04-27T05:31:50.541Z,21.2
2023-04-27T05:59:46.040Z,21.1
2023-04-27T06:05:24.557Z,21.1
2023-04-27T06:11:02.351Z,21.1
2023-04-27T06:16:38.445Z,21.1
2023-04-27T06:22:15.298Z,21
2023-04-27T06:28:07.135Z,21
2023-04-27T06:33:58.817Z,21
2023-04-27T06:39:52.209Z,21
2023-04-27T06:45:44.085Z,21
2023-04-27T06:51:36.046Z,21
2023-04-27T06:57:30.299Z,20.9
2023-04-27T07:03:21.917Z,21.6
2023-04-27T07:09:26.395Z,42.1
2023-04-27T07:15:18.425Z,36.1
2023-04-27T07:21:09.689Z,37.3
2023-04-27T07:27:03.006Z,39.7
2023-04-27T07:33:07.893Z,40.9
2023-04-27T07:39:15.164Z,42.5
2023-04-27T07:45:06.802Z,44.1
2023-04-27T07:50:58.656Z,45.6
2023-04-27T07:56:50.678Z,46.8
2023-04-27T08:02:56.813Z,48
2023-04-27T08:08:46.449Z,49
2023-04-27T08:14:22.397Z,50.7
2023-04-27T08:24:48.483Z,52.7
2023-04-27T08:30:22.678Z,53.6
2023-04-27T08:35:28.878Z,54.6
2023-04-27T08:40:49.816Z,55.4
2023-04-27T08:46:09.777Z,55.6
2023-04-27T08:51:56.338Z,57.4
2023-04-27T08:57:50.530Z,52.9
2023-04-27T09:03:44.310Z,54
2023-04-27T09:09:49.312Z,50
2023-04-27T09:15:40.395Z,55
2023-04-27T09:21:16.229Z,52.6
2023-04-27T09:26:37.043Z,52.3
2023-04-27T09:32:29.408Z,53.9
2023-04-27T09:38:20.884Z,49.6
2023-04-27T09:44:14.044Z,44.7
2023-04-27T09:49:50.430Z,45.2
2023-04-27T09:55:41.300Z,51.7
2023-04-27T10:01:33.890Z,46.1
2023-04-27T10:07:55.668Z,41.6
2023-04-27T10:13:46.675Z,49.2
2023-04-27T10:19:38.521Z,62.8
2023-04-27T10:25:32.686Z,56.7
2023-04-27T10:31:25.638Z,50.1
2023-04-27T10:37:16.897Z,47
2023-04-27T10:43:24.042Z,54.3
2023-04-27T10:49:15.124Z,53.8
2023-04-27T10:54:51.574Z,50.9
2023-04-27T11:00:51.447Z,45.4
2023-04-27T11:06:30.766Z,41.8
2023-04-27T11:12:06.715Z,38.9
2023-04-27T11:17:58.150Z,36.6
2023-04-27T11:23:49.459Z,34.7
2023-04-27T11:29:41.330Z,33.1
2023-04-27T11:35:20.490Z,31.9
2023-04-27T11:40:55.505Z,30.9
2023-04-27T11:46:31.913Z,30.1
2023-04-27T11:51:53.184Z,29.4
2023-04-27T11:57:16.569Z,28.8
2023-04-27T12:02:45.344Z,28.3
2023-04-27T12:08:34.172Z,32
2023-04-27T12:14:10.589Z,61.8
2023-04-27T12:19:32.319Z,52.3
2023-04-27T12:25:24.016Z,45.9
2023-04-27T12:30:47.346Z,41.9
2023-04-27T12:36:39.972Z,38.9
2023-04-27T12:42:31.305Z,36.4
2023-04-27T12:48:51.933Z,34.5
2023-04-27T12:54:43.262Z,32.9
2023-04-27T13:00:51.190Z,31.5
2023-04-27T13:06:45.217Z,30.6
2023-04-27T13:12:36.950Z,29.8
2023-04-27T13:18:34.994Z,29
2023-04-27T13:24:27.129Z,33.4
2023-04-27T13:30:19.574Z,52.1
2023-04-27T13:36:25.866Z,46.1
2023-04-27T13:42:17.351Z,42
2023-04-27T13:48:09.757Z,38.8
2023-04-27T13:53:46.322Z,36.3
2023-04-27T13:59:37.372Z,34.4
2023-04-27T14:05:31.342Z,32.8
2023-04-27T14:11:22.681Z,31.5
2023-04-27T14:17:32.441Z,30.4
2023-04-27T14:23:35.205Z,29.6
2023-04-27T14:29:26.790Z,28.8
2023-04-27T14:35:17.626Z,28.2
2023-04-27T14:41:10.184Z,27.6
2023-04-27T14:47:27.144Z,27.3
2023-04-27T14:53:18.688Z,26.8
2023-04-27T14:59:10.176Z,26.4
2023-04-27T15:05:03.463Z,26.1
2023-04-27T15:10:55.068Z,25.9
2023-04-27T15:16:47.637Z,25.6
2023-04-27T15:22:39.706Z,25.4
2023-04-27T15:28:33.311Z,25.2
2023-04-27T15:34:25.819Z,25
2023-04-27T15:40:17.014Z,24.9
2023-04-27T15:46:09.204Z,24.7
2023-04-27T15:51:59.397Z,24.6
2023-04-27T15:57:53.318Z,24.4
2023-04-27T16:03:46.431Z,24.3
2023-04-27T16:09:41.740Z,24.3
2023-04-27T16:15:18.088Z,24.2
2023-04-27T16:21:09.890Z,24.1
2023-04-27T16:27:01.923Z,24
2023-04-27T16:32:53.621Z,23.9
2023-04-27T16:38:44.762Z,23.9
2023-04-27T16:44:21.816Z,23.8
2023-04-27T16:50:14.194Z,23.8
2023-04-27T16:56:06.257Z,23.7
2023-04-27T17:01:42.829Z,23.6
2023-04-27T17:07:48.187Z,23.6
2023-04-27T17:13:41.155Z,23.6
2023-04-27T17:19:33.095Z,23.5
2023-04-27T17:25:28.037Z,23.5
2023-04-27T17:31:21.337Z,23.4
2023-04-27T17:37:16.599Z,23.4
2023-04-27T17:43:08.637Z,23.3
2023-04-27T17:49:00.141Z,23.3
2023-04-27T17:54:52.260Z,23.5
2023-04-27T18:00:29.291Z,24.1
2023-04-27T18:06:07.690Z,24.6
2023-04-27T18:11:30.936Z,24.9
2023-04-27T18:17:10.500Z,25.3
2023-04-27T18:23:16.617Z,25.4
2023-04-27T18:29:10.671Z,25.6
2023-04-27T18:35:02.971Z,25.8
2023-04-27T18:40:55.020Z,25.9
2023-04-27T18:46:46.694Z,26.1
2023-04-27T18:52:23.838Z,26.2
2023-04-27T18:58:15.911Z,26.2
2023-04-27T19:04:10.377Z,26.2
2023-04-27T19:10:21.778Z,26.2
2023-04-27T19:16:18.714Z,26.1
2023-04-27T19:22:22.121Z,26
2023-04-27T19:28:31.319Z,25.9
2023-04-27T19:34:28.241Z,25.8
2023-04-27T19:40:24.094Z,25.8
2023-04-27T19:46:01.635Z,25.7
2023-04-27T19:51:55.230Z,25.6
2023-04-27T19:57:48.627Z,25.6
2023-04-27T20:03:42.791Z,25.4
2023-04-27T20:09:40.067Z,25.4
2023-04-27T20:15:49.251Z,25.3
2023-04-27T20:21:27.457Z,25.2
2023-04-27T20:27:07.638Z,25.1
2023-04-27T20:33:01.198Z,25.1
2023-04-27T20:39:06.768Z,25
2023-04-27T20:45:00.739Z,24.9
2023-04-27T20:50:31.154Z,24.6
2023-04-27T20:56:27.685Z,24.5
2023-04-27T21:02:20.217Z,24.4
2023-04-27T21:08:13.715Z,24.3
2023-04-27T21:14:08.184Z,24.2
2023-04-27T21:20:14.421Z,24.2
2023-04-27T21:26:14.411Z,24.1
2023-04-27T21:32:09.213Z,24
2023-04-27T21:38:01.518Z,23.9
2023-04-27T21:43:53.110Z,23.9
2023-04-27T21:49:44.930Z,23.8
2023-04-27T21:55:21.580Z,23.8
2023-04-27T22:01:16.515Z,23.8
2023-04-27T22:07:09.855Z,23.7
2023-04-27T22:12:33.000Z,23.6
2023-04-27T22:18:37.032Z,23.6
2023-04-27T22:24:28.822Z,23.5
2023-04-27T22:30:34.150Z,23.5
2023-04-27T22:36:33.628Z,23.4
2023-04-27T22:42:24.960Z,23.4
2023-04-27T22:48:15.876Z,23.4
2023-04-27T22:54:06.489Z,23.4
2023-04-27T22:59:57.528Z,23.3
2023-04-27T23:05:50.576Z,23.3
2023-04-27T23:11:42.326Z,23.2
2023-04-27T23:17:33.877Z,23.2
2023-04-27T23:23:32.139Z,23.2
2023-04-27T23:29:23.559Z,23.1
2023-04-27T23:35:15.620Z,23.1
2023-04-27T23:40:51.377Z,23.1
2023-04-27T23:46:27.386Z,23.1
2023-04-27T23:52:18.608Z,23.1
2023-04-27T23:57:55.083Z,23
